Time;durP1;ratioP1;P1;durP2;ratioP2;P2;SDS_P1;SDS_P2;PMS_P1;PMS_P2;Temp;Humidity;BMP_temperature;BMP_pressure;BME280_temperature;BME280_humidity;BME280_pressure;Samples;Min_cycle;Max_cycle;Signal;HPM_P1;HPM_P2
2021/09/06 00:00:55;;;;;;;;;27.75;20.75;;;;;23.13;56.05;101712.03;5100144;27;46479;-57
2021/09/06 00:03:21;;;;;;;;;19.75;19.25;;;;;23.13;56.21;101712.91;5099956;27;45260;-57
2021/09/06 00:05:46;;;;;;;;;19.00;18.25;;;;;23.11;56.09;101708.66;5100249;27;45334;-57
2021/09/06 00:08:12;;;;;;;;;22.25;19.75;;;;;23.09;56.35;101706.09;5099961;27;45262;-57
2021/09/06 00:10:43;;;;;;;;;25.25;21.25;;;;;23.09;56.25;101705.25;5100139;27;46086;-57
2021/09/06 00:13:13;;;;;;;;;16.00;16.00;;;;;23.07;55.71;101708.00;5099994;27;45633;-56
2021/09/06 00:15:39;;;;;;;;;20.75;20.00;;;;;23.05;56.05;101701.94;5099627;27;45275;-56
2021/09/06 00:18:05;;;;;;;;;20.50;17.75;;;;;23.05;55.63;101705.44;5099864;27;45351;-56
2021/09/06 00:20:32;;;;;;;;;23.25;20.50;;;;;23.05;55.84;101709.91;5100185;27;45385;-56
2021/09/06 00:22:58;;;;;;;;;23.50;20.00;;;;;23.02;55.95;101707.41;5087848;27;45244;-56
2021/09/06 00:25:23;;;;;;;;;25.00;19.00;;;;;22.95;56.10;101706.13;5100068;27;45312;-58
2021/09/06 00:27:49;;;;;;;;;18.25;16.50;;;;;22.95;55.88;101719.38;5100257;27;45280;-57
2021/09/06 00:30:15;;;;;;;;;22.75;21.00;;;;;22.89;56.06;101717.97;5099733;27;46453;-57
2021/09/06 00:32:40;;;;;;;;;19.00;18.25;;;;;22.83;56.54;101714.88;5087335;27;45445;-57
2021/09/06 00:35:06;;;;;;;;;19.25;18.50;;;;;22.82;55.88;101715.78;5099681;27;45647;-55
2021/09/06 00:37:31;;;;;;;;;21.25;19.50;;;;;22.78;56.62;101709.81;5100055;27;45245;-57
2021/09/06 00:39:57;;;;;;;;;22.50;21.50;;;;;22.76;56.37;101709.91;5099572;27;45451;-57
2021/09/06 00:42:22;;;;;;;;;19.25;16.75;;;;;22.74;56.47;101718.91;5099863;27;45321;-57
2021/09/06 00:44:47;;;;;;;;;18.75;17.50;;;;;22.71;56.86;101712.00;5081548;27;45374;-57
2021/09/06 00:47:13;;;;;;;;;22.00;19.25;;;;;22.70;56.55;101710.31;5099722;27;45295;-57
2021/09/06 00:49:39;;;;;;;;;18.75;16.50;;;;;22.70;56.73;101717.41;5099554;27;46565;-57
2021/09/06 00:52:04;;;;;;;;;21.25;19.50;;;;;22.70;56.48;101714.75;5099936;27;45388;-57
2021/09/06 00:54:31;;;;;;;;;22.50;19.25;;;;;22.69;56.67;101711.25;5100036;27;45280;-57
2021/09/06 00:56:57;;;;;;;;;23.75;21.75;;;;;22.69;56.32;101716.56;5099844;27;45529;-56
2021/09/06 00:59:22;;;;;;;;;17.00;16.75;;;;;22.67;56.45;101722.91;5099484;27;45463;-57
2021/09/06 01:01:47;;;;;;;;;22.50;18.25;;;;;22.65;56.73;101715.03;5099843;27;45425;-56
2021/09/06 01:04:13;;;;;;;;;22.50;20.75;;;;;22.66;56.35;101722.06;5099462;27;45286;-56
2021/09/06 01:06:38;;;;;;;;;17.75;16.00;;;;;22.67;56.39;101721.09;5099472;27;45306;-56
2021/09/06 01:09:04;;;;;;;;;19.75;17.50;;;;;22.66;56.82;101719.41;5099473;27;45535;-56
2021/09/06 01:11:30;;;;;;;;;18.00;17.00;;;;;22.65;56.43;101717.69;5099629;27;45266;-56
2021/09/06 01:13:56;;;;;;;;;18.50;16.50;;;;;22.65;56.46;101716.84;5099554;27;45384;-56
2021/09/06 01:16:22;;;;;;;;;17.50;16.50;;;;;22.64;56.51;101716.00;5099393;27;45397;-56
2021/09/06 01:18:48;;;;;;;;;19.00;17.25;;;;;22.62;56.80;101723.16;5099034;27;45441;-56
2021/09/06 01:21:15;;;;;;;;;22.50;17.75;;;;;22.61;56.75;101713.50;5099814;27;45390;-56
2021/09/06 01:23:40;;;;;;;;;22.25;19.00;;;;;22.58;57.44;101716.34;5099653;27;45267;-57
2021/09/06 01:26:06;;;;;;;;;25.75;21.75;;;;;22.57;57.33;101719.09;5099338;27;45494;-57
2021/09/06 01:28:31;;;;;;;;;18.00;17.25;;;;;22.52;56.92;101716.75;5100416;27;46462;-57
2021/09/06 01:30:56;;;;;;;;;22.00;21.50;;;;;22.49;57.31;101716.94;5102711;27;45362;-57
2021/09/06 01:33:22;;;;;;;;;20.00;16.25;;;;;22.46;57.34;101714.50;5102450;27;45603;-57
2021/09/06 01:35:47;;;;;;;;;22.25;21.00;;;;;22.42;57.52;101705.00;5102769;27;45423;-57
2021/09/06 01:38:12;;;;;;;;;26.25;21.50;;;;;22.42;57.39;101711.16;5102574;27;46271;-57
2021/09/06 01:40:38;;;;;;;;;18.75;17.75;;;;;22.39;57.78;101710.50;5102530;27;45346;-57
2021/09/06 01:43:03;;;;;;;;;19.75;18.75;;;;;22.37;57.20;101718.53;5102751;27;45244;-57
2021/09/06 01:45:29;;;;;;;;;22.00;21.50;;;;;22.35;57.49;101716.94;5084071;27;45455;-57
2021/09/06 01:47:54;;;;;;;;;22.25;20.75;;;;;22.34;57.39;101718.72;5102274;27;45891;-57
2021/09/06 01:50:19;;;;;;;;;21.00;20.00;;;;;22.31;57.39;101721.56;5102323;27;45370;-57
2021/09/06 01:52:45;;;;;;;;;27.00;21.25;;;;;22.30;57.46;101722.50;5102601;27;45249;-57
2021/09/06 01:55:10;;;;;;;;;21.25;20.25;;;;;22.29;58.24;101738.50;5102460;27;45398;-57
2021/09/06 01:57:36;;;;;;;;;19.25;18.50;;;;;22.26;58.08;101731.59;5102665;27;46240;-57
2021/09/06 02:00:01;;;;;;;;;22.25;21.00;;;;;22.25;58.24;101737.84;5102251;27;45306;-57
2021/09/06 02:02:27;;;;;;;;;21.50;21.00;;;;;22.23;58.33;101728.28;5102318;27;45387;-58
2021/09/06 02:04:52;;;;;;;;;28.50;26.00;;;;;22.19;58.45;101730.25;5102140;27;45332;-58
2021/09/06 02:07:17;;;;;;;;;20.00;19.00;;;;;22.19;58.70;101732.91;5088529;27;45945;-58
2021/09/06 02:09:43;;;;;;;;;26.00;21.00;;;;;22.17;58.71;101732.13;5102063;27;45436;-58
2021/09/06 02:12:08;;;;;;;;;21.75;20.75;;;;;22.16;58.80;101735.72;5102418;27;45276;-57
2021/09/06 02:14:34;;;;;;;;;24.00;21.00;;;;;22.13;58.59;101731.47;5101719;27;45673;-57
2021/09/06 02:16:59;;;;;;;;;22.25;19.25;;;;;22.11;58.84;101733.38;5101971;27;45484;-57
2021/09/06 02:19:25;;;;;;;;;24.25;21.50;;;;;22.09;59.15;101727.31;5101684;27;45496;-57
2021/09/06 02:21:51;;;;;;;;;22.50;20.25;;;;;22.07;59.08;101734.50;5102837;27;45299;-58
2021/09/06 02:24:17;;;;;;;;;21.25;20.50;;;;;22.07;59.15;101731.84;5101836;27;45685;-58
2021/09/06 02:26:42;;;;;;;;;22.75;19.75;;;;;22.03;58.97;101734.75;5101945;27;45574;-58
2021/09/06 02:29:10;;;;;;;;;20.75;19.75;;;;;22.01;59.52;101731.31;5078466;28;45303;-58
2021/09/06 02:31:35;;;;;;;;;24.25;22.25;;;;;21.97;59.41;101733.28;5094904;27;45381;-59
2021/09/06 02:34:01;;;;;;;;;22.25;20.75;;;;;21.95;59.36;101740.47;5101230;27;45322;-59
2021/09/06 02:36:26;;;;;;;;;21.25;19.00;;;;;21.93;59.98;101741.50;5101807;27;46426;-59
2021/09/06 02:38:51;;;;;;;;;30.25;22.00;;;;;21.92;59.79;101739.81;5101290;27;45288;-59
2021/09/06 02:41:17;;;;;;;;;26.75;22.00;;;;;21.89;59.62;101738.19;5101745;27;45322;-59
2021/09/06 02:43:42;;;;;;;;;24.25;21.00;;;;;21.87;59.83;101740.09;5101405;27;45270;-58
2021/09/06 02:46:08;;;;;;;;;23.75;21.50;;;;;21.85;59.35;101734.91;5101675;27;45388;-58
2021/09/06 02:48:33;;;;;;;;;27.00;21.50;;;;;21.83;59.75;101743.88;5101063;27;45310;-58
2021/09/06 02:50:58;;;;;;;;;24.00;19.00;;;;;21.82;60.06;101742.13;5101785;27;45273;-58
2021/09/06 02:53:24;;;;;;;;;21.50;19.50;;;;;21.81;60.09;101745.72;5101395;27;45259;-58
2021/09/06 02:55:49;;;;;;;;;21.25;19.75;;;;;21.81;60.06;101738.63;5101508;27;46447;-58
2021/09/06 02:58:14;;;;;;;;;20.75;18.00;;;;;21.81;60.20;101745.72;5082659;27;45429;-58
2021/09/06 03:00:40;;;;;;;;;24.75;22.75;;;;;21.80;60.14;101742.22;5101645;27;45247;-59
2021/09/06 03:03:05;;;;;;;;;25.00;22.50;;;;;21.77;60.38;101745.06;5100703;27;45482;-59
2021/09/06 03:05:31;;;;;;;;;23.00;21.50;;;;;21.79;60.13;101742.31;5101411;27;46463;-58
2021/09/06 03:07:58;;;;;;;;;21.75;20.75;;;;;21.75;60.30;101746.09;5100705;27;45427;-56
2021/09/06 03:10:23;;;;;;;;;22.25;20.50;;;;;21.73;60.35;101737.41;5101588;27;45423;-57
2021/09/06 03:12:48;;;;;;;;;22.00;20.25;;;;;21.76;60.29;101748.66;5101074;27;45328;-57
2021/09/06 03:15:14;;;;;;;;;25.25;20.00;;;;;21.76;60.46;101747.78;5101009;27;45418;-57
2021/09/06 03:17:39;;;;;;;;;22.50;21.50;;;;;21.73;60.56;101732.94;5100162;27;45331;-55
2021/09/06 03:20:05;;;;;;;;;21.25;20.25;;;;;21.71;60.87;101742.78;5101021;27;45457;-56
2021/09/06 03:22:30;;;;;;;;;21.25;19.00;;;;;21.70;61.11;101740.22;5101344;27;45303;-55
2021/09/06 03:24:56;;;;;;;;;21.50;20.50;;;;;21.65;60.84;101737.84;5100843;27;45576;-55
2021/09/06 03:27:21;;;;;;;;;22.25;19.25;;;;;21.63;61.08;101736.25;5100509;27;45339;-54
2021/09/06 03:29:46;;;;;;;;;25.75;22.00;;;;;21.62;61.16;101740.66;5100766;27;45394;-54
2021/09/06 03:32:12;;;;;;;;;25.00;23.00;;;;;21.60;60.99;101733.75;5100403;27;45376;-53
2021/09/06 03:34:38;;;;;;;;;23.00;21.50;;;;;21.59;61.14;101737.31;5097909;27;47538;-53
2021/09/06 03:37:03;;;;;;;;;22.25;21.00;;;;;21.58;60.84;101738.28;5100488;27;45323;-54
2021/09/06 03:39:29;;;;;;;;;23.50;19.75;;;;;21.51;60.86;101743.94;5100808;27;45437;-54
2021/09/06 03:41:54;;;;;;;;;25.25;20.00;;;;;21.54;60.76;101738.44;5100347;27;45306;-54
2021/09/06 03:44:20;;;;;;;;;24.75;23.75;;;;;21.53;61.04;101738.53;5100670;27;46124;-56
2021/09/06 03:46:45;;;;;;;;;20.75;19.25;;;;;21.51;61.05;101730.69;5100553;27;45318;-55
2021/09/06 03:49:11;;;;;;;;;29.25;24.00;;;;;21.52;61.41;101734.19;5100371;27;45492;-56
2021/09/06 03:51:36;;;;;;;;;25.50;24.50;;;;;21.51;61.17;101735.13;5099687;27;45180;-55
2021/09/06 03:54:01;;;;;;;;;30.00;25.00;;;;;21.48;61.24;101736.16;5100483;27;45612;-56
2021/09/06 03:56:27;;;;;;;;;27.25;21.50;;;;;21.47;61.32;101733.63;5100461;27;45227;-56
2021/09/06 03:58:52;;;;;;;;;17.75;16.25;;;;;21.46;61.31;101734.56;5100494;27;45512;-56
2021/09/06 04:01:17;;;;;;;;;32.00;27.00;;;;;21.45;61.31;101735.50;5100323;27;45227;-56
2021/09/06 04:03:43;;;;;;;;;33.50;28.00;;;;;21.44;61.26;101732.00;5099963;27;47338;-56
2021/09/06 04:06:08;;;;;;;;;24.25;22.00;;;;;21.43;61.52;101727.66;5100127;27;45233;-56
2021/09/06 04:08:33;;;;;;;;;24.75;21.25;;;;;21.42;61.53;101725.91;5100279;27;45453;-57
2021/09/06 04:10:59;;;;;;;;;20.25;17.75;;;;;21.39;61.46;101728.75;5100194;27;45243;-56
2021/09/06 04:13:24;;;;;;;;;23.50;20.25;;;;;21.38;61.04;101731.47;5100028;27;45222;-56
2021/09/06 04:15:50;;;;;;;;;22.75;20.75;;;;;21.36;61.72;101736.84;5100021;27;45467;-56
2021/09/06 04:18:16;;;;;;;;;26.00;21.75;;;;;21.35;61.65;101735.16;5100269;27;45220;-57
2021/09/06 04:20:42;;;;;;;;;22.25;22.25;;;;;21.35;61.58;101747.53;5100330;27;45417;-57
2021/09/06 04:23:07;;;;;;;;;25.50;23.50;;;;;21.33;61.95;101738.81;5100106;27;45539;-56
2021/09/06 04:25:33;;;;;;;;;23.00;19.25;;;;;21.31;61.41;101740.72;5099704;27;45329;-56
2021/09/06 04:27:58;;;;;;;;;25.25;21.50;;;;;21.30;61.61;101742.50;5100058;27;45433;-55
2021/09/06 04:30:23;;;;;;;;;30.25;23.25;;;;;21.29;61.96;101745.22;5099682;27;45502;-56
2021/09/06 04:32:49;;;;;;;;;28.50;26.00;;;;;21.28;61.85;101751.47;5099512;27;46620;-56
2021/09/06 04:35:14;;;;;;;;;26.75;23.75;;;;;21.27;61.44;101745.31;5099066;27;45469;-54
2021/09/06 04:37:39;;;;;;;;;21.00;19.00;;;;;21.26;61.57;101748.91;5099977;27;45310;-55
2021/09/06 04:40:05;;;;;;;;;26.75;23.50;;;;;21.23;61.92;101749.06;5099285;27;45555;-55
2021/09/06 04:42:31;;;;;;;;;30.50;24.75;;;;;21.25;61.59;101756.00;5099307;27;46414;-55
2021/09/06 04:44:56;;;;;;;;;25.50;21.25;;;;;21.24;61.47;101761.38;5099229;27;45481;-55
2021/09/06 04:47:22;;;;;;;;;26.00;21.50;;;;;21.23;61.99;101759.63;5099362;27;45600;-55
2021/09/06 04:49:47;;;;;;;;;23.50;21.50;;;;;21.19;61.58;101753.63;5098862;27;45273;-55
2021/09/06 04:52:13;;;;;;;;;31.00;22.50;;;;;21.21;61.88;101772.91;5098994;27;45322;-56
2021/09/06 04:54:39;;;;;;;;;25.25;21.75;;;;;21.19;61.61;101766.84;5099031;27;45269;-56
2021/09/06 04:57:04;;;;;;;;;25.25;23.75;;;;;21.19;62.06;101779.22;5099355;27;45287;-57
2021/09/06 04:59:29;;;;;;;;;20.75;20.75;;;;;21.17;61.94;101781.09;5098753;27;45210;-55
2021/09/06 05:01:55;;;;;;;;;25.50;20.75;;;;;21.17;62.08;101778.44;5099060;27;45938;-55
2021/09/06 05:04:20;;;;;;;;;22.50;21.00;;;;;21.13;61.80;101779.56;5102236;27;45185;-56
2021/09/06 05:06:45;;;;;;;;;24.00;24.00;;;;;21.11;61.92;101776.16;5102145;27;45379;-56
2021/09/06 05:09:11;;;;;;;;;22.00;20.00;;;;;21.11;61.88;101781.44;5088840;27;45397;-56
2021/09/06 05:11:36;;;;;;;;;31.75;26.50;;;;;21.11;62.32;101781.44;5101238;27;46078;-59
2021/09/06 05:14:01;;;;;;;;;48.25;34.75;;;;;21.09;62.13;101791.25;5102404;27;45305;-59
2021/09/06 05:16:27;;;;;;;;;29.75;25.00;;;;;21.08;62.11;101784.25;5102634;27;45403;-59
2021/09/06 05:18:52;;;;;;;;;27.25;22.50;;;;;21.07;62.63;101790.47;5101803;27;45359;-57
2021/09/06 05:21:18;;;;;;;;;29.75;25.25;;;;;21.06;62.53;101789.63;5102379;27;46666;-59
2021/09/06 05:23:44;;;;;;;;;29.00;24.75;;;;;21.06;62.68;101789.63;5100968;27;45838;-58
2021/09/06 05:26:10;;;;;;;;;29.25;27.25;;;;;21.06;65.52;101802.84;5099667;27;45568;-48
2021/09/06 05:28:35;;;;;;;;;29.25;24.50;;;;;21.19;63.93;101810.94;5100572;27;45560;-49
2021/09/06 05:31:06;;;;;;;;;25.00;23.25;;;;;21.24;64.29;101801.88;5100366;27;45499;-58
2021/09/06 05:33:31;;;;;;;;;29.75;22.50;;;;;21.30;64.45;101808.59;5100210;27;45510;-58
2021/09/06 05:35:56;;;;;;;;;26.00;21.00;;;;;21.34;62.65;101822.50;5099646;27;45330;-65
2021/09/06 05:38:22;;;;;;;;;23.25;21.50;;;;;21.34;62.62;101817.22;5100934;27;45323;-63
2021/09/06 05:40:47;;;;;;;;;29.25;27.00;;;;;21.36;62.56;101817.97;5101230;27;45320;-59
2021/09/06 05:43:12;;;;;;;;;27.25;23.50;;;;;21.39;62.29;101825.75;5101470;27;45370;-58
2021/09/06 05:45:38;;;;;;;;;29.25;24.00;;;;;21.40;62.22;101825.66;5101084;27;45420;-59
2021/09/06 05:48:04;;;;;;;;;26.50;22.25;;;;;21.39;62.50;101825.75;5100915;27;45461;-59
2021/09/06 05:50:30;;;;;;;;;23.00;19.50;;;;;21.38;62.14;101839.91;5099932;27;47167;-58
2021/09/06 05:52:55;;;;;;;;;25.00;22.75;;;;;21.38;62.44;101835.47;5101359;27;45334;-58
2021/09/06 05:55:20;;;;;;;;;26.00;24.00;;;;;21.36;61.82;101840.00;5089616;27;45423;-58
2021/09/06 05:57:46;;;;;;;;;45.75;36.25;;;;;21.39;61.91;101838.97;5101947;27;45520;-58
2021/09/06 06:00:11;;;;;;;;;34.00;27.25;;;;;21.40;61.89;101846.81;5101620;27;45286;-58
2021/09/06 06:02:37;;;;;;;;;26.00;24.25;;;;;21.43;62.00;101841.38;5101436;27;45173;-58
2021/09/06 06:05:04;;;;;;;;;28.75;24.25;;;;;21.45;61.89;101847.44;5101440;27;45223;-57
2021/09/06 06:07:29;;;;;;;;;31.50;22.25;;;;;21.47;61.84;101850.84;5100825;27;45248;-58
2021/09/06 06:09:54;;;;;;;;;32.25;23.50;;;;;21.47;61.85;101847.34;5101366;27;45192;-55
2021/09/06 06:12:20;;;;;;;;;27.00;22.50;;;;;21.48;61.94;101847.25;5101563;27;45267;-51
2021/09/06 06:14:45;;;;;;;;;26.50;24.00;;;;;21.49;62.14;101854.25;5099358;27;45587;-50
2021/09/06 06:17:10;;;;;;;;;28.25;24.00;;;;;21.52;62.25;101851.44;5098506;27;45692;-51
2021/09/06 06:19:36;;;;;;;;;30.25;25.25;;;;;21.52;62.06;101851.44;5097348;27;45499;-49
2021/09/06 06:22:02;;;;;;;;;28.25;22.00;;;;;21.55;62.32;101856.53;5099979;27;45658;-48
2021/09/06 06:24:27;;;;;;;;;24.50;22.25;;;;;21.58;62.14;101857.31;5099704;27;45538;-49
2021/09/06 06:26:53;;;;;;;;;25.50;20.75;;;;;21.61;61.83;101857.13;5099684;27;45720;-48
2021/09/06 06:29:18;;;;;;;;;23.00;21.75;;;;;21.64;62.04;101870.22;5099726;27;46432;-49
2021/09/06 06:31:43;;;;;;;;;27.00;23.25;;;;;21.69;62.16;101862.88;5100298;27;45397;-58
2021/09/06 06:34:09;;;;;;;;;26.75;23.75;;;;;21.78;61.43;101867.63;5100655;27;45447;-57
2021/09/06 06:36:35;;;;;;;;;27.00;23.50;;;;;21.82;61.53;101869.16;5100974;27;45527;-58
2021/09/06 06:39:00;;;;;;;;;25.25;22.50;;;;;21.90;61.35;101874.03;5076078;28;46949;-58
2021/09/06 06:41:25;;;;;;;;;25.25;24.00;;;;;22.00;60.73;101867.25;5092391;27;45335;-55
2021/09/06 06:43:51;;;;;;;;;24.25;22.25;;;;;22.04;60.77;101868.81;5099164;27;45462;-57
2021/09/06 06:46:17;;;;;;;;;28.00;22.25;;;;;22.07;60.09;101872.16;5099548;27;45521;-57
2021/09/06 06:48:43;;;;;;;;;26.50;24.50;;;;;22.11;60.28;101871.03;5098388;27;45529;-58
2021/09/06 06:51:08;;;;;;;;;25.50;22.25;;;;;22.20;60.04;101876.72;5081314;27;45247;-57
2021/09/06 06:53:33;;;;;;;;;27.50;24.50;;;;;22.22;59.92;101870.41;5099403;27;45212;-58
2021/09/06 06:55:59;;;;;;;;;28.25;26.25;;;;;22.28;59.83;101878.00;5099259;27;45241;-57
2021/09/06 06:58:25;;;;;;;;;21.50;21.00;;;;;22.34;59.28;101884.75;5099159;27;45330;-57
2021/09/06 07:00:51;;;;;;;;;26.25;23.00;;;;;22.38;59.39;101879.16;5099215;27;45370;-57
2021/09/06 07:03:16;;;;;;;;;28.25;24.75;;;;;22.51;59.19;101879.31;5099621;27;45339;-58
2021/09/06 07:05:42;;;;;;;;;27.00;25.50;;;;;22.63;58.68;101883.03;5100174;27;45551;-57
2021/09/06 07:08:07;;;;;;;;;29.50;25.75;;;;;22.73;58.64;101884.16;5099170;27;47081;-57
2021/09/06 07:10:32;;;;;;;;;32.50;23.25;;;;;22.84;58.60;101892.38;5100025;27;45456;-57
2021/09/06 07:12:58;;;;;;;;;33.00;26.00;;;;;22.95;58.17;101895.19;5099224;27;45544;-57
2021/09/06 07:15:24;;;;;;;;;24.00;23.50;;;;;23.02;57.82;101891.22;5096813;27;45583;-56
2021/09/06 07:17:49;;;;;;;;;28.00;23.25;;;;;23.11;57.93;101891.63;5093262;27;47120;-56
2021/09/06 07:20:14;;;;;;;;;28.25;24.75;;;;;23.19;57.24;101886.69;5092276;27;45457;-56
2021/09/06 07:22:40;;;;;;;;;23.00;20.75;;;;;23.27;57.20;101895.88;5096995;27;46017;-56
2021/09/06 07:25:06;;;;;;;;;30.50;27.00;;;;;23.31;56.97;101889.44;5099321;27;45457;-55
2021/09/06 07:27:31;;;;;;;;;31.75;26.00;;;;;23.40;56.79;101895.94;5099570;27;45323;-55
2021/09/06 07:29:56;;;;;;;;;24.75;20.75;;;;;23.48;56.33;101901.63;5100344;27;45251;-55
2021/09/06 07:32:22;;;;;;;;;30.75;26.50;;;;;23.55;55.75;101904.75;5100114;27;45226;-55
2021/09/06 07:34:47;;;;;;;;;25.75;23.00;;;;;23.62;55.79;101901.63;5100064;27;45170;-55
2021/09/06 07:37:12;;;;;;;;;25.00;25.00;;;;;23.70;55.90;101902.94;5099784;27;45497;-55
2021/09/06 07:39:38;;;;;;;;;30.00;24.00;;;;;23.78;55.72;101908.59;5099968;27;45236;-55
2021/09/06 07:42:04;;;;;;;;;43.50;32.00;;;;;23.90;55.70;101910.47;5099901;27;45142;-54
2021/09/06 07:44:30;;;;;;;;;28.75;25.00;;;;;24.00;55.16;101905.41;5098614;27;45444;-55
2021/09/06 07:46:57;;;;;;;;;28.50;25.75;;;;;24.16;54.95;101906.13;5098658;27;46399;-55
2021/09/06 07:49:23;;;;;;;;;28.75;21.50;;;;;24.25;54.27;101906.38;5099577;27;45753;-55
2021/09/06 07:51:55;;;;;;;;;27.25;25.50;;;;;24.37;54.43;101909.19;5099686;27;45358;-55
2021/09/06 07:54:22;;;;;;;;;20.25;19.50;;;;;24.47;53.53;101910.28;5099397;27;45308;-56
2021/09/06 07:56:49;;;;;;;;;23.75;18.75;;;;;24.54;53.54;101907.09;5099288;27;45287;-56
2021/09/06 07:59:17;;;;;;;;;23.25;21.75;;;;;24.57;53.52;101911.34;5099465;27;45702;-56
2021/09/06 08:01:44;;;;;;;;;25.25;22.75;;;;;24.64;52.91;101919.78;5098878;27;45484;-57
2021/09/06 08:04:10;;;;;;;;;26.25;22.00;;;;;24.74;52.70;101924.34;5098980;27;45461;-56
2021/09/06 08:06:36;;;;;;;;;23.25;21.00;;;;;24.83;52.58;101920.22;5099088;27;46555;-56
2021/09/06 08:09:02;;;;;;;;;25.25;23.25;;;;;24.91;52.37;101920.53;5099262;27;45382;-56
2021/09/06 08:11:27;;;;;;;;;23.50;22.00;;;;;24.99;52.12;101928.84;5099548;27;45295;-57
2021/09/06 08:13:53;;;;;;;;;24.00;22.00;;;;;25.07;51.77;101929.19;5099300;27;46526;-55
2021/09/06 08:16:18;;;;;;;;;24.00;22.00;;;;;25.13;51.12;101928.75;5099140;27;46508;-55
2021/09/06 08:18:44;;;;;;;;;23.25;22.25;;;;;25.17;51.72;101927.56;5099076;27;45482;-55
2021/09/06 08:21:09;;;;;;;;;32.00;26.50;;;;;25.22;50.88;101929.91;5099852;27;45556;-55
2021/09/06 08:23:34;;;;;;;;;26.50;22.50;;;;;25.30;50.58;101932.06;5099258;27;45533;-56
2021/09/06 08:26:00;;;;;;;;;27.50;24.00;;;;;25.38;50.57;101927.03;5099068;27;45613;-55
2021/09/06 08:28:26;;;;;;;;;22.25;20.75;;;;;25.45;50.61;101925.66;5099256;27;45398;-55
2021/09/06 08:30:51;;;;;;;;;30.25;23.00;;;;;25.52;50.65;101931.38;5098749;27;45268;-56
2021/09/06 08:33:17;;;;;;;;;28.50;22.25;;;;;25.58;50.22;101930.94;5098638;27;45322;-55
2021/09/06 08:35:42;;;;;;;;;30.50;27.00;;;;;25.66;50.26;101931.25;5098925;27;45412;-57
2021/09/06 08:38:08;;;;;;;;;25.50;22.25;;;;;25.73;50.32;101928.03;5101691;27;45250;-56
2021/09/06 08:40:34;;;;;;;;;25.25;24.75;;;;;25.81;49.70;101926.63;5103059;27;45292;-57
2021/09/06 08:43:03;;;;;;;;;27.50;24.25;;;;;25.93;49.64;101931.06;5102983;27;45469;-56
2021/09/06 08:45:29;;;;;;;;;25.25;24.25;;;;;25.98;49.25;101929.75;5102787;27;46436;-56
2021/09/06 08:47:55;;;;;;;;;28.00;24.00;;;;;26.01;49.06;101928.69;5084558;27;45332;-56
2021/09/06 08:50:21;;;;;;;;;23.75;22.00;;;;;26.06;49.21;101922.06;5103269;27;45523;-55
2021/09/06 08:52:46;;;;;;;;;30.75;27.25;;;;;26.12;48.77;101931.41;5103210;27;45518;-57
2021/09/06 08:55:12;;;;;;;;;28.75;22.75;;;;;26.19;48.53;101931.81;5102244;27;45632;-56
2021/09/06 08:57:38;;;;;;;;;29.50;26.50;;;;;26.26;48.66;101927.72;5102064;27;45489;-56
2021/09/06 09:00:05;;;;;;;;;28.75;25.75;;;;;26.31;47.74;101928.22;5102807;27;45465;-57
2021/09/06 09:02:34;;;;;;;;;26.75;24.50;;;;;26.36;47.37;101937.59;5100717;27;45441;-57
2021/09/06 09:05:02;;;;;;;;;28.00;24.00;;;;;26.42;47.71;101932.78;5101344;27;45497;-55
2021/09/06 09:07:29;;;;;;;;;31.50;24.25;;;;;26.53;47.44;101931.00;5101561;27;45367;-58
2021/09/06 09:09:55;;;;;;;;;24.00;21.00;;;;;26.63;46.63;101931.16;5102990;27;45273;-58
2021/09/06 09:12:23;;;;;;;;;28.50;24.00;;;;;26.68;44.61;101931.66;5103216;27;45223;-57
2021/09/06 09:14:54;;;;;;;;;25.50;21.25;;;;;26.73;45.54;101921.47;5102516;27;45726;-60
2021/09/06 09:17:20;;;;;;;;;26.00;22.50;;;;;26.83;45.55;101926.94;5102628;27;45266;-59
2021/09/06 09:19:46;;;;;;;;;26.00;25.75;;;;;26.90;45.08;101926.38;5090369;27;45139;-59
2021/09/06 09:22:30;;;;;;;;;26.50;25.00;;;;;26.94;45.78;101919.81;5103089;27;45456;-58
2021/09/06 09:25:08;;;;;;;;;28.25;26.75;;;;;27.00;45.36;101920.34;5102531;27;46641;-59
2021/09/06 09:27:44;;;;;;;;;30.50;25.00;;;;;27.07;45.29;101926.91;5101979;27;45326;-59
2021/09/06 09:30:35;;;;;;;;;25.25;23.25;;;;;27.19;45.54;101929.44;5102549;27;45419;-60
2021/09/06 09:33:08;;;;;;;;;25.00;22.75;;;;;27.32;44.98;101937.34;5092273;27;45712;-59
2021/09/06 09:35:34;;;;;;;;;24.00;20.75;;;;;27.42;44.74;101934.78;5102245;27;45616;-59
2021/09/06 09:38:04;;;;;;;;;25.00;21.75;;;;;27.52;43.98;101936.59;5102407;27;47322;-59
2021/09/06 09:40:34;;;;;;;;;28.25;25.50;;;;;27.64;43.66;101934.81;5101813;27;45429;-59
2021/09/06 09:43:00;;;;;;;;;23.00;19.00;;;;;27.73;43.30;101939.41;5101001;27;45522;-57
2021/09/06 09:45:26;;;;;;;;;20.50;18.50;;;;;27.78;41.44;101936.34;5100840;27;46504;-57
2021/09/06 09:47:57;;;;;;;;;20.75;20.50;;;;;27.80;42.31;101934.41;5100807;27;45351;-57
2021/09/06 09:50:24;;;;;;;;;21.75;18.75;;;;;27.90;42.20;101931.84;5098286;27;45257;-57
2021/09/06 09:52:53;;;;;;;;;18.75;17.50;;;;;28.02;40.91;101933.50;5101510;27;45612;-56
2021/09/06 09:55:20;;;;;;;;;18.75;16.75;;;;;28.11;40.58;101930.06;5098551;27;47025;-56
2021/09/06 09:57:45;;;;;;;;;20.75;19.75;;;;;28.19;40.65;101924.94;5101765;27;45760;-57
2021/09/06 10:00:14;;;;;;;;;19.25;16.00;;;;;28.25;40.33;101929.81;5101598;27;45272;-56
2021/09/06 10:02:46;;;;;;;;;20.50;18.00;;;;;28.31;39.99;101931.13;5100972;27;45431;-57
2021/09/06 10:05:12;;;;;;;;;31.25;28.00;;;;;28.38;40.36;101926.94;5101697;27;45550;-57
2021/09/06 10:07:43;;;;;;;;;19.25;19.25;;;;;28.40;40.05;101925.00;5100759;27;45682;-58
2021/09/06 10:10:18;;;;;;;;;14.75;14.75;;;;;28.48;39.42;101926.06;5102077;27;45333;-57
2021/09/06 10:12:46;;;;;;;;;22.25;19.25;;;;;28.49;39.81;101929.59;5080363;27;45526;-58
2021/09/06 10:15:11;;;;;;;;;20.00;17.75;;;;;28.54;40.00;101927.34;5100760;27;46329;-57
2021/09/06 10:17:52;;;;;;;;;17.00;15.25;;;;;28.63;39.79;101928.38;5100770;27;45191;-56
2021/09/06 10:20:20;;;;;;;;;17.00;17.00;;;;;28.70;39.79;101924.22;5101738;27;45389;-56
2021/09/06 10:22:47;;;;;;;;;23.75;16.25;;;;;28.78;39.50;101925.25;5100454;27;45588;-56
2021/09/06 10:25:29;;;;;;;;;19.50;15.00;;;;;28.82;38.99;101917.81;5100473;27;45486;-57
2021/09/06 10:28:02;;;;;;;;;13.50;10.50;;;;;28.86;38.33;101913.09;5099677;27;45519;-56
2021/09/06 10:30:40;;;;;;;;;16.25;14.00;;;;;28.84;38.10;101920.38;5099863;27;45413;-57
2021/09/06 10:33:07;;;;;;;;;16.25;15.25;;;;;28.86;39.14;101915.78;5099750;27;45448;-57
2021/09/06 10:35:33;;;;;;;;;13.50;10.50;;;;;28.96;39.52;101911.31;5099487;27;46777;-56
2021/09/06 10:38:12;;;;;;;;;13.50;12.50;;;;;29.04;38.77;101903.47;5101279;27;45284;-57
2021/09/06 10:40:41;;;;;;;;;12.00;11.50;;;;;29.10;38.66;101907.44;5100515;27;45328;-57
2021/09/06 10:43:25;;;;;;;;;15.25;13.25;;;;;29.16;38.59;101910.41;5100030;27;45471;-58
2021/09/06 10:45:52;;;;;;;;;14.25;14.25;;;;;29.16;38.18;101906.91;5080278;27;47453;-57
2021/09/06 10:48:27;;;;;;;;;20.75;16.25;;;;;29.23;39.32;101900.00;5100658;27;45291;-57
2021/09/06 10:50:53;;;;;;;;;15.00;12.75;;;;;29.22;37.97;101895.63;5100525;27;45489;-55
2021/09/06 10:53:22;;;;;;;;;15.25;14.00;;;;;29.32;38.24;101894.69;5098320;27;45220;-56
2021/09/06 10:55:49;;;;;;;;;14.50;13.00;;;;;29.45;37.78;101898.97;5081558;27;47613;-56
2021/09/06 10:58:15;;;;;;;;;9.75;5.75;;;;;29.49;37.70;101893.25;5096102;27;45480;-56
2021/09/06 11:00:40;;;;;;;;;18.25;16.75;;;;;29.54;37.88;101895.50;5099886;27;45389;-56
2021/09/06 11:03:06;;;;;;;;;13.75;11.50;;;;;29.63;38.11;101889.31;5099862;27;45431;-56
2021/09/06 11:05:32;;;;;;;;;19.00;16.25;;;;;29.70;37.81;101895.81;5081839;27;46014;-56